Friant, California
Current Conditions -  °F | °C
As of 10:53 AM on Monday 20 Oct 2014 (Local Time) from KFAT Reporting Station
Scattered Clouds Scattered Clouds  
Wind Chill: 70°   Ceiling: Unl
Heat Index: 70°   Visibility: 10mi
Dew Point: 53°   Wind: 7mph
Humidity: 55%   Direction: 300°WNW
Pressure: 29.96"   Gusts: NA
Location:  36.99°N, 119.71°W
Report Text: KFAT 201753Z 30006KT 10SM SCT120 21/12 A2996 RMK AO2 SLP144 MTNS OBSC HZ DSNT N-E-S T02110117 10211 20139 51017
Loading
Personal Weather Stations






























Interactive Weather Map
Tropical Storm Tracking
New forecast layout! Learn more

10-Day Weather Forecast

Advertisements
Track Severe Weather on mobile